Sonnette, Montana
Current Conditions -  °F | °C
As of 7:53 AM on Monday 22 Dec 2014 (Local Time) from KMLS Reporting Station
Clear Clear  
Wind Chill: 24°   Ceiling: Unl
Heat Index: 34°   Visibility: 10mi
Dew Point: 26°   Wind: 15mph
Humidity: 73%   Direction: 300°WNW
Pressure: 29.63"   Gusts: NA
Location:  45.44°N, 105.41°W
Report Text: KMLS 221453Z AUTO 30013KT 10SM CLR 01/M03 A2963 RMK AO2 SLP049 T00111033 51010
Loading
Personal Weather Stations






























Interactive Weather Map New forecast layout! Learn more

10-Day Weather Forecast

Advertisements
Track Severe Weather on mobile